createdAt,value
2019-02-14T05:03:07.006Z,103241.07
2019-02-14T05:06:35.032Z,103251.05
2019-02-14T05:10:06.916Z,103257.64
2019-02-14T05:13:34.876Z,103268.67
2019-02-14T05:17:02.836Z,103275.14
2019-02-14T05:20:30.768Z,103276.32
2019-02-14T05:23:58.704Z,103274.9
2019-02-14T05:27:26.650Z,103277.75
2019-02-14T05:30:54.554Z,103279.53
2019-02-14T05:34:22.486Z,103281.02
2019-02-14T05:37:50.430Z,103275.78
2019-02-14T05:41:18.331Z,103269.2
2019-02-14T05:44:46.260Z,103277.12
2019-02-14T05:48:14.194Z,103287.29
2019-02-14T05:51:42.180Z,103290.2
2019-02-14T05:55:10.099Z,103289.54
2019-02-14T05:58:38.030Z,103278.93
2019-02-14T06:02:05.969Z,103287.14
2019-02-14T06:05:34.876Z,103281.68
2019-02-14T06:09:02.808Z,103286.5
2019-02-14T06:12:30.766Z,103299.84
2019-02-14T06:15:58.687Z,103312.07
2019-02-14T06:19:27.603Z,103318.67
2019-02-14T06:22:56.524Z,103318.81
2019-02-14T06:26:24.458Z,103324.1
2019-02-14T06:29:52.387Z,103324.56
2019-02-14T06:33:20.324Z,103328.56
2019-02-14T06:36:49.221Z,103334.19
2019-02-14T06:40:17.168Z,103335.66
2019-02-14T06:43:45.106Z,103329.56
2019-02-14T06:47:13.037Z,103338.55
2019-02-14T06:50:40.978Z,103350.15
2019-02-14T06:54:09.890Z,103361.26
2019-02-14T06:57:37.789Z,103357.07
2019-02-14T07:01:05.762Z,103358.22
2019-02-14T07:04:55.769Z,103358.39
2019-02-14T07:08:23.690Z,103353.89
2019-02-14T07:11:51.618Z,103361.95
2019-02-14T07:15:19.539Z,103370.34
2019-02-14T07:18:47.546Z,103366.34
2019-02-14T07:22:15.485Z,103361.89
2019-02-14T07:25:43.390Z,103364.12
2019-02-14T07:29:12.319Z,103363.99
2019-02-14T07:32:41.241Z,103362.92
2019-02-14T07:36:09.239Z,103361.84
2019-02-14T07:39:37.439Z,103364.9
2019-02-14T07:43:05.397Z,103377.03
2019-02-14T07:46:34.531Z,103381.87
2019-02-14T07:50:02.412Z,103379.78
2019-02-14T07:53:30.372Z,103385.62
2019-02-14T07:56:58.281Z,103373.92
2019-02-14T08:00:26.193Z,103373.65
2019-02-14T08:03:54.101Z,103377.59
2019-02-14T08:07:22.049Z,103362.65
2019-02-14T08:10:51.010Z,103368.34
2019-02-14T08:14:18.938Z,103363.46
2019-02-14T08:17:46.906Z,103366.27
2019-02-14T08:21:15.851Z,103363.31
2019-02-14T08:24:43.763Z,103352.29
2019-02-14T08:28:12.651Z,103357.03
2019-02-14T08:31:40.567Z,103343.07
2019-02-14T08:35:08.491Z,103345.59
2019-02-14T08:38:36.396Z,103346.98
2019-02-14T08:42:04.291Z,103351.06
2019-02-14T08:45:34.563Z,103353.72
2019-02-14T08:49:03.864Z,103358.95
2019-02-14T08:52:31.806Z,103361.74
2019-02-14T08:56:00.790Z,103353.49
2019-02-14T08:59:28.784Z,103342.65
2019-02-14T09:02:56.731Z,103345.46
2019-02-14T09:06:24.686Z,103344.6
2019-02-14T09:09:52.689Z,103339.2
2019-02-14T09:13:20.618Z,103346.21
2019-02-14T09:16:48.587Z,103348.17
2019-02-14T09:20:16.524Z,103345.81
2019-02-14T09:23:44.467Z,103350.47
2019-02-14T09:27:13.054Z,103355.98
2019-02-14T09:30:42.074Z,103357.24
2019-02-14T09:34:10.112Z,103363.68
2019-02-14T09:37:39.203Z,103366.54
2019-02-14T09:41:07.297Z,103366.46
2019-02-14T09:44:35.422Z,103364.78
2019-02-14T09:48:03.427Z,103372.17
2019-02-14T09:51:31.431Z,103373.84
2019-02-14T09:54:59.450Z,103379.88
2019-02-14T09:58:27.396Z,103383.25
2019-02-14T10:01:55.441Z,103380.64
2019-02-14T10:05:23.490Z,103370.03
2019-02-14T10:08:51.550Z,103384.28
2019-02-14T10:12:19.552Z,103385.12
2019-02-14T10:15:47.532Z,103375.24
2019-02-14T10:19:15.584Z,103375.53
2019-02-14T10:22:44.575Z,103375.79
2019-02-14T10:26:12.592Z,103378.17
2019-02-14T10:29:40.613Z,103384.98
2019-02-14T10:33:08.654Z,103379.5
2019-02-14T10:36:37.632Z,103383.07
2019-02-14T10:40:05.626Z,103386.08
2019-02-14T10:43:33.626Z,103383.59
2019-02-14T10:47:01.679Z,103387.9
2019-02-14T10:50:29.663Z,103385.23
2019-02-14T10:53:57.635Z,103390.86
2019-02-14T10:57:26.594Z,103391.17
2019-02-14T11:00:54.561Z,103385.34
2019-02-14T11:04:22.531Z,103382.82
2019-02-14T11:07:50.505Z,103390.36
2019-02-14T11:11:18.465Z,103387.87
2019-02-14T11:14:46.431Z,103388.85
2019-02-14T11:18:14.415Z,103397.59
2019-02-14T11:21:42.403Z,103386.82
2019-02-14T11:25:10.372Z,103388.68
2019-02-14T11:28:40.311Z,103380.64
2019-02-14T11:32:08.326Z,103388.1
2019-02-14T11:35:36.503Z,103389.79
2019-02-14T11:39:04.607Z,103392.73
2019-02-14T11:42:32.718Z,103391.78
2019-02-14T11:46:01.788Z,103391.97
2019-02-14T11:49:31.808Z,103393.79
2019-02-14T11:52:59.884Z,103393.93
2019-02-14T11:56:29.591Z,103396.86
2019-02-14T11:59:57.572Z,103398.34
2019-02-14T12:03:25.647Z,103391.45
2019-02-14T12:06:54.299Z,103385.4
2019-02-14T12:10:22.370Z,103395.68
2019-02-14T12:13:50.453Z,103385.87
2019-02-14T12:17:18.506Z,103392.03
2019-02-14T12:20:47.964Z,103395.72
2019-02-14T12:24:15.720Z,103383.32
2019-02-14T12:27:43.781Z,103372.51
2019-02-14T12:31:11.885Z,103373.33
2019-02-14T12:34:40.944Z,103369.32
2019-02-14T12:38:08.997Z,103360.51
2019-02-14T12:41:37.946Z,103362.73
2019-02-14T12:45:05.961Z,103363.75
2019-02-14T12:48:34.064Z,103355.78
2019-02-14T12:52:03.039Z,103346.25
2019-02-14T12:55:31.032Z,103338.9
2019-02-14T12:59:00.001Z,103336.6
2019-02-14T13:02:27.987Z,103330.89
2019-02-14T13:05:56.011Z,103328.67
2019-02-14T13:09:24.956Z,103330.59
2019-02-14T13:12:52.929Z,103328.75
2019-02-14T13:16:20.912Z,103325.23
2019-02-14T13:19:49.091Z,103322.35
2019-02-14T13:23:17.096Z,103323.39
2019-02-14T13:26:45.158Z,103325.68
2019-02-14T13:30:13.159Z,103321.14
2019-02-14T13:33:41.186Z,103328.39
2019-02-14T13:37:09.189Z,103327.79
2019-02-14T13:40:37.262Z,103329.06
2019-02-14T13:44:05.238Z,103329.71
2019-02-14T13:47:33.297Z,103322.96
2019-02-14T13:51:01.295Z,103324.23
2019-02-14T13:54:29.302Z,103320.29
2019-02-14T13:57:57.399Z,103323.59
2019-02-14T14:01:25.515Z,103318.65
2019-02-14T14:04:54.580Z,103308.1
2019-02-14T14:08:22.576Z,103313.42
2019-02-14T14:11:50.585Z,103307.5
2019-02-14T14:15:19.677Z,103303.53
2019-02-14T14:18:47.838Z,103299.14
2019-02-14T14:22:15.912Z,103284.75
2019-02-14T14:25:43.879Z,103285.53
2019-02-14T14:29:11.911Z,103286.59
2019-02-14T14:32:40.922Z,103295.64
2019-02-14T14:36:08.930Z,103287.25
2019-02-14T14:39:37.081Z,103291.95
2019-02-14T14:43:10.050Z,103302.6
2019-02-14T14:46:38.131Z,103299.75
2019-02-14T14:50:06.128Z,103300.13
2019-02-14T14:53:34.184Z,103301.53
2019-02-14T14:57:02.232Z,103300.5
2019-02-14T15:00:30.284Z,103297.9
2019-02-14T15:03:58.278Z,103294.57
2019-02-14T15:07:27.314Z,103293.14
2019-02-14T15:10:55.357Z,103289.15
2019-02-14T15:14:23.358Z,103288.53
2019-02-14T15:17:51.403Z,103291.12
2019-02-14T15:21:19.438Z,103289.23
2019-02-14T15:24:47.504Z,103290.35
2019-02-14T15:28:17.606Z,103294.71
2019-02-14T15:31:50.994Z,103290.37
2019-02-14T15:35:19.006Z,103286.73
2019-02-14T15:38:47.039Z,103285.17
2019-02-14T15:42:15.175Z,103290.14
2019-02-14T15:45:44.134Z,103285.9
2019-02-14T15:49:12.035Z,103279.9
2019-02-14T15:52:39.959Z,103280.45
2019-02-14T15:56:08.886Z,103275.33
2019-02-14T15:59:36.812Z,103277.21
2019-02-14T16:03:07.700Z,103280.92
2019-02-14T16:06:35.732Z,103276.1
2019-02-14T16:10:05.974Z,103281.87
2019-02-14T16:13:37.112Z,103273.14
2019-02-14T16:17:06.738Z,103282.64
2019-02-14T16:20:37.318Z,103292.43
2019-02-14T16:24:08.275Z,103295.26
2019-02-14T16:27:37.241Z,103292.39
2019-02-14T16:31:06.093Z,103293.4
2019-02-14T16:34:34.028Z,103298.9
2019-02-14T16:38:01.960Z,103300.53
2019-02-14T16:41:30.858Z,103295.66
2019-02-14T16:44:58.758Z,103301.79
2019-02-14T16:48:27.668Z,103301.73
2019-02-14T16:51:55.625Z,103293.28
2019-02-14T16:55:24.346Z,103290.63
2019-02-14T16:58:52.311Z,103298.32
2019-02-14T17:02:20.488Z,103296.78
2019-02-14T17:05:48.472Z,103294.09
2019-02-14T17:09:16.449Z,103288.65
2019-02-14T17:12:44.432Z,103288.54
2019-02-14T17:16:12.393Z,103289.25
2019-02-14T17:19:40.297Z,103295.09
2019-02-14T17:23:10.960Z,103293.98
2019-02-14T17:26:42.347Z,103288.06
2019-02-14T17:30:11.872Z,103293.75
2019-02-14T17:33:40.276Z,103292.76
2019-02-14T17:37:08.974Z,103290.85
2019-02-14T17:40:45.733Z,103287.01
2019-02-14T17:44:10.999Z,103282.5
2019-02-14T17:47:41.625Z,103280.92
2019-02-14T17:51:10.407Z,103284.46
2019-02-14T17:54:38.465Z,103284.75
2019-02-14T17:58:06.683Z,103274.31
2019-02-14T18:01:34.745Z,103280.4
2019-02-14T18:05:03.533Z,103282.07
2019-02-14T18:08:31.532Z,103282.54
2019-02-14T18:12:00.504Z,103287.56
2019-02-14T18:15:28.424Z,103283.19
2019-02-14T18:18:56.962Z,103280.75
2019-02-14T18:22:24.873Z,103276.46
2019-02-14T18:25:53.918Z,103275.5
2019-02-14T18:29:21.807Z,103273.24
2019-02-14T18:32:49.733Z,103271.79
2019-02-14T18:36:18.662Z,103270.51
2019-02-14T18:39:46.674Z,103269.1
2019-02-14T18:43:14.675Z,103270.39
2019-02-14T18:46:43.373Z,103268.45
2019-02-14T18:50:11.356Z,103274.94
2019-02-14T18:53:39.287Z,103276.19
2019-02-14T18:57:07.323Z,103278.78
2019-02-14T19:00:35.263Z,103272.73
2019-02-14T19:04:03.327Z,103273.22
2019-02-14T19:07:32.313Z,103275.93
2019-02-14T19:11:00.218Z,103275.69
2019-02-14T19:14:29.222Z,103276
2019-02-14T19:17:57.240Z,103278.92
2019-02-14T19:21:25.145Z,103275.6
2019-02-14T19:24:53.093Z,103274.95
2019-02-14T19:28:21.039Z,103275.5
2019-02-14T19:31:49.021Z,103274.52
2019-02-14T19:35:22.918Z,103268.82
2019-02-14T19:38:48.911Z,103265.53
2019-02-14T19:42:16.892Z,103267.08
2019-02-14T19:45:45.001Z,103260.75
2019-02-14T19:49:12.881Z,103254.93
2019-02-14T19:52:40.828Z,103257.92
2019-02-14T19:56:08.823Z,103257.73
2019-02-14T19:59:37.367Z,103250.49
2019-02-14T20:03:05.327Z,103245.82
2019-02-14T20:06:33.663Z,103249.06
2019-02-14T20:10:01.611Z,103243.6
2019-02-14T20:13:30.588Z,103242.32
2019-02-14T20:16:58.611Z,103240.42
2019-02-14T20:20:26.524Z,103248.78
2019-02-14T20:23:54.486Z,103254.71
2019-02-14T20:27:22.435Z,103249.92
2019-02-14T20:30:51.344Z,103256.54
2019-02-14T20:34:19.231Z,103257.52
2019-02-14T20:37:47.140Z,103256.25
2019-02-14T20:41:15.032Z,103265.6
2019-02-14T20:44:44.006Z,103257.64
2019-02-14T20:48:12.056Z,103266.79
2019-02-14T20:51:41.016Z,103275.12
2019-02-14T20:55:09.094Z,103275.01
2019-02-14T20:58:37.137Z,103276.52
2019-02-14T21:02:05.106Z,103283.22
2019-02-14T21:05:32.986Z,103281.96
2019-02-14T21:09:00.896Z,103279.37
2019-02-14T21:12:28.796Z,103282.75
2019-02-14T21:15:56.688Z,103282.09
2019-02-14T21:19:24.598Z,103281.75
2019-02-14T21:22:52.506Z,103277.21
2019-02-14T21:26:20.403Z,103282.79
2019-02-14T21:29:48.320Z,103294.01
2019-02-14T21:33:16.226Z,103292.07
2019-02-14T21:36:44.119Z,103292.1
2019-02-14T21:40:12.027Z,103301.18
2019-02-14T21:43:39.938Z,103302.67
2019-02-14T21:47:07.828Z,103297.28
2019-02-14T21:50:35.742Z,103301.45
2019-02-14T21:54:03.705Z,103300.71
2019-02-14T21:57:31.601Z,103306.63
2019-02-14T22:00:59.514Z,103299.8
2019-02-14T22:04:27.447Z,103299.75
2019-02-14T22:07:55.325Z,103309
2019-02-14T22:11:23.250Z,103302.18
2019-02-14T22:14:52.643Z,103298.98
2019-02-14T22:18:20.530Z,103299.68
2019-02-14T22:21:48.431Z,103300.28
2019-02-14T22:25:16.344Z,103295.71
2019-02-14T22:28:44.270Z,103301.57
2019-02-14T22:32:12.184Z,103297.65
2019-02-14T22:35:40.120Z,103302.07
2019-02-14T22:39:08.029Z,103297.92
2019-02-14T22:42:35.917Z,103301.73
2019-02-14T22:46:07.791Z,103294.75
2019-02-14T22:49:35.904Z,103297.31
2019-02-14T22:53:03.792Z,103298.16
2019-02-14T22:56:31.706Z,103300.45
2019-02-14T23:00:00.608Z,103300.46
